Time;durP1;ratioP1;P1;durP2;ratioP2;P2;SDS_P1;SDS_P2;PMS_P1;PMS_P2;Temp;Humidity;BMP_temperature;BMP_pressure;BME280_temperature;BME280_humidity;BME280_pressure;Samples;Min_cycle;Max_cycle;Signal;HPM_P1;HPM_P2
2021/04/21 00:02:14;;;;;;;;;;;;;;;;;;5025835;28;1898;-58
2021/04/21 00:04:39;;;;;;;;;;;;;;;;;;5025367;28;818;-58
2021/04/21 00:07:05;;;;;;;;;;;;;;;;;;5024543;28;799;-59
2021/04/21 00:09:30;;;;;;;;;;;;;;;;;;5024993;28;787;-57
2021/04/21 00:11:56;;;;;;;;;;;;;;;;;;5023484;28;902;-58
2021/04/21 00:14:22;;;;;;;;;;;;;;;;;;5025753;28;806;-58
2021/04/21 00:16:51;;;;;;;;;;;;;;;;;;5025217;28;909;-59
2021/04/21 00:19:19;;;;;;;;;;;;;;;;;;5024063;28;913;-58
2021/04/21 00:21:45;;;;;;;;;;;;;;;;;;5024690;27;1969;-58
2021/04/21 00:24:11;;;;;;;;;;;;;;;;;;5024702;28;889;-58
2021/04/21 00:26:37;;;;;;;;;;;;;;;;;;5025134;28;890;-59
2021/04/21 00:29:08;;;;;;;;;;;;;;;;;;5023078;28;859;-58
2021/04/21 00:31:33;;;;;;;;;;;;;;;;;;5024397;28;696;-58
2021/04/21 00:33:59;;;;;;;;;;;;;;;;;;5025488;28;834;-58
2021/04/21 00:36:26;;;;;;;;;;;;;;;;;;5027126;28;874;-59
2021/04/21 00:38:52;;;;;;;;;;;;;;;;;;5025681;28;898;-59
2021/04/21 00:41:24;;;;;;;;;;;;;;;;;;5024406;28;1902;-58
2021/04/21 00:43:49;;;;;;;;;;;;;;;;;;5025287;28;798;-58
2021/04/21 00:46:20;;;;;;;;;;;;;;;;;;5024358;28;815;-58
2021/04/21 00:49:04;;;;;;;;;;;;;;;;;;5024274;28;814;-58
2021/04/21 00:51:35;;;;;;;;;;;;;;;;;;5024968;28;861;-58
2021/04/21 00:54:15;;;;;;;;;;;;;;;;;;5082461;28;1132;-59
2021/04/21 00:56:59;;;;;;;;;;;;;;;;;;5107809;28;842;-58
2021/04/21 00:59:33;;;;;;;;;;;;;;;;;;5108626;28;885;-60
2021/04/21 01:02:00;;;;;;;;;;;;;;;;;;5107638;28;1906;-58
2021/04/21 01:04:25;;;;;;;;;;;;;;;;;;5107826;28;814;-58
2021/04/21 01:06:52;;;;;;;;;;;;;;;;;;5108404;28;869;-59
2021/04/21 01:09:19;;;;;;;;;;;;;;;;;;5107611;28;830;-58
2021/04/21 01:11:58;;;;;;;;;;;;;;;;;;5107393;28;866;-58
2021/04/21 01:14:28;;;;;;;;;;;;;;;;;;5107671;28;806;-58
2021/04/21 01:17:01;;;;;;;;;;;;;;;;;;5108064;28;897;-59
2021/04/21 01:19:32;;;;;;;;;;;;;;;;;;5094965;28;1143;-57
2021/04/21 01:22:01;;;;;;;;;;;;;;;;;;5107905;28;1893;-59
2021/04/21 01:24:30;;;;;;;;;;;;;;;;;;5107513;28;874;-58
2021/04/21 01:27:10;;;;;;;;;;;;;;;;;;5107243;28;880;-59
2021/04/21 01:29:37;;;;;;;;;;;;;;;;;;5107153;28;877;-57
2021/04/21 01:32:29;;;;;;;;;;;;;;;;;;5105661;28;1270;-58
2021/04/21 01:34:56;;;;;;;;;;;;;;;;;;5104696;28;1237;-59
2021/04/21 01:37:25;;;;;;;;;;;;;;;;;;5110346;28;897;-58
2021/04/21 01:39:54;;;;;;;;;;;;;;;;;;5106397;28;937;-59
2021/04/21 01:42:23;;;;;;;;;;;;;;;;;;5108010;28;1976;-59
2021/04/21 01:44:50;;;;;;;;;;;;;;;;;;5105951;28;818;-58
2021/04/21 01:47:18;;;;;;;;;;;;;;;;;;5106605;28;870;-58
2021/04/21 01:49:49;;;;;;;;;;;;;;;;;;5107231;28;849;-58
2021/04/21 01:52:22;;;;;;;;;;;;;;;;;;5105592;28;787;-58
2021/04/21 01:54:49;;;;;;;;;;;;;;;;;;4984403;28;897;-58
2021/04/21 01:57:19;;;;;;;;;;;;;;;;;;4984890;28;855;-58
2021/04/21 01:59:47;;;;;;;;;;;;;;;;;;4984448;28;902;-58
2021/04/21 02:02:24;;;;;;;;;;;;;;;;;;4983799;28;1964;-59
2021/04/21 02:04:57;;;;;;;;;;;;;;;;;;4984392;28;807;-58
2021/04/21 02:07:32;;;;;;;;;;;;;;;;;;4985058;28;871;-58
2021/04/21 02:10:03;;;;;;;;;;;;;;;;;;4984069;28;812;-58
2021/04/21 02:12:38;;;;;;;;;;;;;;;;;;4982993;28;1119;-58
2021/04/21 02:15:22;;;;;;;;;;;;;;;;;;4984044;28;826;-58
2021/04/21 02:18:05;;;;;;;;;;;;;;;;;;4982697;28;895;-58
2021/04/21 02:20:42;;;;;;;;;;;;;;;;;;4983882;28;906;-59
2021/04/21 02:23:14;;;;;;;;;;;;;;;;;;4984628;28;1997;-58
2021/04/21 02:26:01;;;;;;;;;;;;;;;;;;4983780;28;807;-57
2021/04/21 02:28:38;;;;;;;;;;;;;;;;;;4983387;28;894;-58
2021/04/21 02:31:21;;;;;;;;;;;;;;;;;;4983989;28;909;-58
2021/04/21 02:33:55;;;;;;;;;;;;;;;;;;4983269;28;846;-58
2021/04/21 02:36:25;;;;;;;;;;;;;;;;;;4985501;28;823;-58
2021/04/21 02:39:02;;;;;;;;;;;;;;;;;;4984747;28;1041;-58
2021/04/21 02:41:34;;;;;;;;;;;;;;;;;;4983300;28;1899;-58
2021/04/21 02:44:14;;;;;;;;;;;;;;;;;;4983034;28;863;-58
2021/04/21 02:46:54;;;;;;;;;;;;;;;;;;4983665;28;866;-57
2021/04/21 02:49:20;;;;;;;;;;;;;;;;;;4984734;28;863;-58
2021/04/21 02:51:57;;;;;;;;;;;;;;;;;;4983970;28;828;-58
2021/04/21 02:54:30;;;;;;;;;;;;;;;;;;5016733;28;1201;-58
2021/04/21 02:57:04;;;;;;;;;;;;;;;;;;5025251;28;779;-58
2021/04/21 02:59:38;;;;;;;;;;;;;;;;;;5026173;28;850;-57
2021/04/21 03:02:14;;;;;;;;;;;;;;;;;;5026492;28;1948;-58
2021/04/21 03:04:39;;;;;;;;;;;;;;;;;;5026328;28;806;-58
2021/04/21 03:07:07;;;;;;;;;;;;;;;;;;5024456;28;1202;-58
2021/04/21 03:09:39;;;;;;;;;;;;;;;;;;5025985;28;818;-57
2021/04/21 03:12:06;;;;;;;;;;;;;;;;;;5025957;28;1078;-58
2021/04/21 03:14:33;;;;;;;;;;;;;;;;;;5025803;28;810;-58
2021/04/21 03:17:00;;;;;;;;;;;;;;;;;;5037463;28;1234;-57
2021/04/21 03:19:28;;;;;;;;;;;;;;;;;;5024906;28;830;-58
2021/04/21 03:22:13;;;;;;;;;;;;;;;;;;5026111;28;1945;-58
2021/04/21 03:24:39;;;;;;;;;;;;;;;;;;5025257;28;826;-58
2021/04/21 03:27:06;;;;;;;;;;;;;;;;;;5026170;28;822;-58
2021/04/21 03:29:42;;;;;;;;;;;;;;;;;;5025785;28;823;-58
2021/04/21 03:32:36;;;;;;;;;;;;;;;;;;5024683;28;963;-58
2021/04/21 03:35:02;;;;;;;;;;;;;;;;;;5034010;28;1305;-58
2021/04/21 03:37:46;;;;;;;;;;;;;;;;;;5027911;28;882;-59
2021/04/21 03:40:12;;;;;;;;;;;;;;;;;;5025368;28;806;-58
2021/04/21 03:42:40;;;;;;;;;;;;;;;;;;5025907;28;1965;-58
2021/04/21 03:45:06;;;;;;;;;;;;;;;;;;5024750;28;1580;-58
2021/04/21 03:47:32;;;;;;;;;;;;;;;;;;5024632;28;807;-58
2021/04/21 03:49:58;;;;;;;;;;;;;;;;;;5025000;28;851;-58
2021/04/21 03:52:25;;;;;;;;;;;;;;;;;;5027529;28;1160;-58
2021/04/21 03:54:51;;;;;;;;;;;;;;;;;;5109511;28;861;-58
2021/04/21 03:57:17;;;;;;;;;;;;;;;;;;5107964;28;847;-58
2021/04/21 03:59:43;;;;;;;;;;;;;;;;;;5108778;28;810;-58
2021/04/21 04:02:11;;;;;;;;;;;;;;;;;;5108101;28;1890;-58
2021/04/21 04:04:39;;;;;;;;;;;;;;;;;;5109069;28;839;-58
2021/04/21 04:07:08;;;;;;;;;;;;;;;;;;5108044;28;826;-58
2021/04/21 04:09:34;;;;;;;;;;;;;;;;;;5108269;28;802;-59
2021/04/21 04:12:04;;;;;;;;;;;;;;;;;;5108440;28;882;-58
2021/04/21 04:14:30;;;;;;;;;;;;;;;;;;5108683;28;806;-58
2021/04/21 04:16:58;;;;;;;;;;;;;;;;;;5107784;28;914;-58
2021/04/21 04:19:23;;;;;;;;;;;;;;;;;;5108050;28;819;-58
2021/04/21 04:21:55;;;;;;;;;;;;;;;;;;5109110;28;1886;-58
2021/04/21 04:24:21;;;;;;;;;;;;;;;;;;5109704;28;815;-58
2021/04/21 04:26:47;;;;;;;;;;;;;;;;;;5108226;28;838;-58
2021/04/21 04:29:13;;;;;;;;;;;;;;;;;;5108005;28;870;-58
2021/04/21 04:31:39;;;;;;;;;;;;;;;;;;5108283;28;830;-57
2021/04/21 04:34:05;;;;;;;;;;;;;;;;;;5108064;28;849;-58
2021/04/21 04:36:38;;;;;;;;;;;;;;;;;;5108547;27;890;-57
2021/04/21 04:39:04;;;;;;;;;;;;;;;;;;5111516;28;877;-57
2021/04/21 04:41:30;;;;;;;;;;;;;;;;;;5107771;28;1893;-58
2021/04/21 04:43:56;;;;;;;;;;;;;;;;;;5107640;28;822;-58
2021/04/21 04:46:23;;;;;;;;;;;;;;;;;;5108798;28;812;-58
2021/04/21 04:48:56;;;;;;;;;;;;;;;;;;5106793;28;1364;-57
2021/04/21 04:51:21;;;;;;;;;;;;;;;;;;5108402;28;810;-58
2021/04/21 04:53:48;;;;;;;;;;;;;;;;;;5057559;28;1227;-57
2021/04/21 04:56:13;;;;;;;;;;;;;;;;;;5024574;28;937;-58
2021/04/21 04:58:40;;;;;;;;;;;;;;;;;;5024001;27;822;-58
2021/04/21 05:01:06;;;;;;;;;;;;;;;;;;5023521;28;1960;-58
2021/04/21 05:03:41;;;;;;;;;;;;;;;;;;5023437;28;1150;-58
2021/04/21 05:06:08;;;;;;;;;;;;;;;;;;5024144;28;966;-58
2021/04/21 05:08:44;;;;;;;;;;;;;;;;;;5023464;28;857;-58
2021/04/21 05:11:12;;;;;;;;;;;;;;;;;;5024487;28;814;-58
2021/04/21 05:13:39;;;;;;;;;;;;;;;;;;5024031;28;811;-58
2021/04/21 05:16:04;;;;;;;;;;;;;;;;;;5026990;28;1017;-57
2021/04/21 05:18:36;;;;;;;;;;;;;;;;;;5032434;28;1152;-58
2021/04/21 05:21:01;;;;;;;;;;;;;;;;;;5023940;28;1973;-58
2021/04/21 05:23:47;;;;;;;;;;;;;;;;;;5024081;28;891;-57
2021/04/21 05:26:31;;;;;;;;;;;;;;;;;;5023618;28;830;-57
2021/04/21 05:29:08;;;;;;;;;;;;;;;;;;5023307;28;879;-58
2021/04/21 05:31:46;;;;;;;;;;;;;;;;;;5023483;28;846;-58
2021/04/21 05:34:14;;;;;;;;;;;;;;;;;;5022139;28;1210;-58
2021/04/21 05:37:05;;;;;;;;;;;;;;;;;;5023680;28;865;-59
2021/04/21 05:39:42;;;;;;;;;;;;;;;;;;5023764;28;866;-58
2021/04/21 05:42:10;;;;;;;;;;;;;;;;;;5023397;28;1975;-58
2021/04/21 05:44:52;;;;;;;;;;;;;;;;;;5022850;28;815;-57
2021/04/21 05:47:18;;;;;;;;;;;;;;;;;;5008391;28;1012;-59
2021/04/21 05:50:01;;;;;;;;;;;;;;;;;;5003914;28;859;-59
2021/04/21 05:52:38;;;;;;;;;;;;;;;;;;5004622;28;1067;-58
2021/04/21 05:55:13;;;;;;;;;;;;;;;;;;5020221;28;1150;-58
2021/04/21 05:57:38;;;;;;;;;;;;;;;;;;5002684;28;1155;-57
2021/04/21 06:00:19;;;;;;;;;;;;;;;;;;5002129;28;1061;-58
2021/04/21 06:02:45;;;;;;;;;;;;;;;;;;5000906;28;1886;-58
2021/04/21 06:05:13;;;;;;;;;;;;;;;;;;5000764;28;1574;-58
2021/04/21 06:07:39;;;;;;;;;;;;;;;;;;5003144;28;1304;-58
2021/04/21 06:10:27;;;;;;;;;;;;;;;;;;5002452;28;1205;-58
2021/04/21 06:12:53;;;;;;;;;;;;;;;;;;5082933;28;1164;-58
2021/04/21 06:15:23;;;;;;;;;;;;;;;;;;5085703;28;799;-58
2021/04/21 06:17:52;;;;;;;;;;;;;;;;;;5086168;28;953;-59
2021/04/21 06:20:27;;;;;;;;;;;;;;;;;;5084583;28;827;-58
2021/04/21 06:23:11;;;;;;;;;;;;;;;;;;5003156;28;1979;-58
2021/04/21 06:25:38;;;;;;;;;;;;;;;;;;5008053;28;1824;-58
2021/04/21 06:28:08;;;;;;;;;;;;;;;;;;5001346;28;1370;-58
2021/04/21 06:30:34;;;;;;;;;;;;;;;;;;5010825;28;1361;-58
2021/04/21 06:33:00;;;;;;;;;;;;;;;;;;5028402;28;1106;-59
2021/04/21 06:35:28;;;;;;;;;;;;;;;;;;5030413;28;1547;-59
2021/04/21 06:37:53;;;;;;;;;;;;;;;;;;5012193;28;1018;-58
2021/04/21 06:40:23;;;;;;;;;;;;;;;;;;5036943;28;1046;-59
2021/04/21 06:42:49;;;;;;;;;;;;;;;;;;5020499;28;1890;-58
2021/04/21 06:45:21;;;;;;;;;;;;;;;;;;5068763;28;1173;-58
2021/04/21 06:47:46;;;;;;;;;;;;;;;;;;5055202;28;1229;-59
2021/04/21 06:50:12;;;;;;;;;;;;;;;;;;5068799;28;1046;-59
2021/04/21 06:52:39;;;;;;;;;;;;;;;;;;5065770;28;1185;-59
2021/04/21 06:55:06;;;;;;;;;;;;;;;;;;5042741;28;1260;-58
2021/04/21 06:57:32;;;;;;;;;;;;;;;;;;5094780;28;1185;-59
2021/04/21 07:00:15;;;;;;;;;;;;;;;;;;5102483;28;1068;-58
2021/04/21 07:02:41;;;;;;;;;;;;;;;;;;4985547;28;1940;-58
2021/04/21 07:05:25;;;;;;;;;;;;;;;;;;4995086;28;1270;-58
2021/04/21 07:07:50;;;;;;;;;;;;;;;;;;5004728;28;1127;-58
2021/04/21 07:10:16;;;;;;;;;;;;;;;;;;5005110;28;1166;-58
2021/04/21 07:12:42;;;;;;;;;;;;;;;;;;5003293;28;1777;-58
2021/04/21 07:15:07;;;;;;;;;;;;;;;;;;5005604;28;1766;-58
2021/04/21 07:17:33;;;;;;;;;;;;;;;;;;5005639;28;1699;-58
2021/04/21 07:19:58;;;;;;;;;;;;;;;;;;5005549;28;1500;-57
2021/04/21 07:22:24;;;;;;;;;;;;;;;;;;5007070;28;1953;-58
2021/04/21 07:24:49;;;;;;;;;;;;;;;;;;4998352;28;2627;-57
2021/04/21 07:27:16;;;;;;;;;;;;;;;;;;5074635;28;1010;-58
2021/04/21 07:29:45;;;;;;;;;;;;;;;;;;5010395;28;1631;-57
2021/04/21 07:32:17;;;;;;;;;;;;;;;;;;5002893;28;1260;-58
2021/04/21 07:34:43;;;;;;;;;;;;;;;;;;5004624;28;1533;-61
2021/04/21 07:37:09;;;;;;;;;;;;;;;;;;5006104;28;826;-57
2021/04/21 07:39:36;;;;;;;;;;;;;;;;;;5005676;28;853;-57
2021/04/21 07:42:03;;;;;;;;;;;;;;;;;;5004672;28;1964;-56
2021/04/21 07:44:55;;;;;;;;;;;;;;;;;;5005478;28;867;-57
2021/04/21 07:47:19;;;;;;;;;;;;;;;;;;5005277;28;1635;-57
2021/04/21 07:49:46;;;;;;;;;;;;;;;;;;5006197;28;855;-57
2021/04/21 07:52:25;;;;;;;;;;;;;;;;;;5005926;28;843;-59
2021/04/21 07:55:11;;;;;;;;;;;;;;;;;;4987067;28;887;-59
2021/04/21 07:57:37;;;;;;;;;;;;;;;;;;5003380;28;1329;-57
2021/04/21 08:00:06;;;;;;;;;;;;;;;;;;5005301;28;917;-58
2021/04/21 08:02:34;;;;;;;;;;;;;;;;;;5005972;28;1890;-58
2021/04/21 08:05:02;;;;;;;;;;;;;;;;;;5005390;28;874;-59
2021/04/21 08:07:33;;;;;;;;;;;;;;;;;;5005078;28;847;-57
2021/04/21 08:09:59;;;;;;;;;;;;;;;;;;5005448;28;670;-58
2021/04/21 08:12:26;;;;;;;;;;;;;;;;;;5005741;28;819;-57
2021/04/21 08:14:53;;;;;;;;;;;;;;;;;;5006274;28;2560;-61
2021/04/21 08:17:19;;;;;;;;;;;;;;;;;;4994713;28;917;-58
2021/04/21 08:19:46;;;;;;;;;;;;;;;;;;5005293;28;1628;-57
2021/04/21 08:22:13;;;;;;;;;;;;;;;;;;5004692;28;1911;-59
2021/04/21 08:24:42;;;;;;;;;;;;;;;;;;5004955;28;835;-57
2021/04/21 08:27:08;;;;;;;;;;;;;;;;;;5005039;28;1351;-58
2021/04/21 08:29:34;;;;;;;;;;;;;;;;;;5005074;28;822;-57
2021/04/21 08:31:59;;;;;;;;;;;;;;;;;;5005474;28;778;-59
2021/04/21 08:34:25;;;;;;;;;;;;;;;;;;5005055;28;1620;-62
2021/04/21 08:36:50;;;;;;;;;;;;;;;;;;5005843;28;822;-57
2021/04/21 08:39:16;;;;;;;;;;;;;;;;;;5004158;28;1174;-57
2021/04/21 08:41:42;;;;;;;;;;;;;;;;;;5005066;28;1973;-58
2021/04/21 08:44:08;;;;;;;;;;;;;;;;;;5004728;28;819;-58
2021/04/21 08:46:34;;;;;;;;;;;;;;;;;;5004690;28;826;-57
2021/04/21 08:49:00;;;;;;;;;;;;;;;;;;5004765;28;834;-58
2021/04/21 08:51:26;;;;;;;;;;;;;;;;;;5004916;28;838;-57
2021/04/21 08:54:14;;;;;;;;;;;;;;;;;;5018296;28;1142;-58
2021/04/21 08:56:41;;;;;;;;;;;;;;;;;;5007682;28;1487;-58
2021/04/21 08:59:07;;;;;;;;;;;;;;;;;;5003363;28;823;-57
2021/04/21 09:01:33;;;;;;;;;;;;;;;;;;5003711;28;1897;-57
2021/04/21 09:03:59;;;;;;;;;;;;;;;;;;5002746;28;838;-59
2021/04/21 09:06:24;;;;;;;;;;;;;;;;;;5004131;28;949;-57
2021/04/21 09:08:54;;;;;;;;;;;;;;;;;;5003290;28;875;-57
2021/04/21 09:11:20;;;;;;;;;;;;;;;;;;5004114;28;846;-58
2021/04/21 09:13:46;;;;;;;;;;;;;;;;;;5003384;28;831;-58
2021/04/21 09:16:12;;;;;;;;;;;;;;;;;;5003492;28;830;-57
2021/04/21 09:18:37;;;;;;;;;;;;;;;;;;5005782;28;1216;-57
2021/04/21 09:21:04;;;;;;;;;;;;;;;;;;5096745;28;1909;-57
2021/04/21 09:23:37;;;;;;;;;;;;;;;;;;5107526;28;837;-57
2021/04/21 09:26:11;;;;;;;;;;;;;;;;;;5040418;28;1418;-58
2021/04/21 09:28:38;;;;;;;;;;;;;;;;;;5004461;28;807;-57
2021/04/21 09:31:03;;;;;;;;;;;;;;;;;;5004288;28;834;-59
2021/04/21 09:33:29;;;;;;;;;;;;;;;;;;5004469;28;799;-58
2021/04/21 09:35:55;;;;;;;;;;;;;;;;;;5004551;28;842;-61
2021/04/21 09:38:24;;;;;;;;;;;;;;;;;;5005419;28;846;-58
2021/04/21 09:40:53;;;;;;;;;;;;;;;;;;5003826;28;838;-58
2021/04/21 09:43:22;;;;;;;;;;;;;;;;;;5003901;28;1976;-57
2021/04/21 09:45:49;;;;;;;;;;;;;;;;;;5004386;28;1036;-57
2021/04/21 09:48:18;;;;;;;;;;;;;;;;;;5004248;28;902;-57
2021/04/21 09:50:45;;;;;;;;;;;;;;;;;;5003879;28;779;-56
2021/04/21 09:53:21;;;;;;;;;;;;;;;;;;5010945;28;1137;-57
2021/04/21 09:56:09;;;;;;;;;;;;;;;;;;5010819;28;1393;-57
2021/04/21 09:58:36;;;;;;;;;;;;;;;;;;4998385;28;981;-58
2021/04/21 10:01:16;;;;;;;;;;;;;;;;;;5004229;28;830;-58
2021/04/21 10:03:41;;;;;;;;;;;;;;;;;;5004306;28;831;-57
2021/04/21 10:06:18;;;;;;;;;;;;;;;;;;5004087;28;870;-57
2021/04/21 10:08:43;;;;;;;;;;;;;;;;;;5004103;28;904;-57
2021/04/21 10:11:09;;;;;;;;;;;;;;;;;;5003977;28;839;-58
2021/04/21 10:13:41;;;;;;;;;;;;;;;;;;5003513;28;929;-58
2021/04/21 10:16:07;;;;;;;;;;;;;;;;;;5003835;28;799;-56
2021/04/21 10:18:33;;;;;;;;;;;;;;;;;;4999643;28;1392;-57
2021/04/21 10:20:58;;;;;;;;;;;;;;;;;;5003540;28;866;-57
2021/04/21 10:23:24;;;;;;;;;;;;;;;;;;4989937;28;1957;-62
2021/04/21 10:25:49;;;;;;;;;;;;;;;;;;4999084;28;1209;-58
2021/04/21 10:28:15;;;;;;;;;;;;;;;;;;5005467;28;1694;-60
2021/04/21 10:30:41;;;;;;;;;;;;;;;;;;5004686;28;1521;-57
2021/04/21 10:33:06;;;;;;;;;;;;;;;;;;5004333;28;1397;-58
2021/04/21 10:35:31;;;;;;;;;;;;;;;;;;5004085;28;829;-58
2021/04/21 10:37:57;;;;;;;;;;;;;;;;;;5002111;28;1671;-59
2021/04/21 10:40:27;;;;;;;;;;;;;;;;;;5004173;28;933;-58
2021/04/21 10:42:58;;;;;;;;;;;;;;;;;;5004174;28;1894;-58
2021/04/21 10:45:25;;;;;;;;;;;;;;;;;;4988949;28;1743;-58
2021/04/21 10:47:52;;;;;;;;;;;;;;;;;;5003751;28;890;-58
2021/04/21 10:50:35;;;;;;;;;;;;;;;;;;5003428;28;802;-58
2021/04/21 10:53:00;;;;;;;;;;;;;;;;;;5009052;28;1126;-58
2021/04/21 10:55:28;;;;;;;;;;;;;;;;;;5056123;28;1429;-59
2021/04/21 10:57:58;;;;;;;;;;;;;;;;;;5010430;28;1871;-59
2021/04/21 11:00:25;;;;;;;;;;;;;;;;;;4997955;28;1441;-58
2021/04/21 11:02:56;;;;;;;;;;;;;;;;;;4996163;28;1890;-58
2021/04/21 11:05:41;;;;;;;;;;;;;;;;;;5002788;28;1477;-59
2021/04/21 11:08:23;;;;;;;;;;;;;;;;;;4999463;28;1101;-60
2021/04/21 11:10:54;;;;;;;;;;;;;;;;;;5001251;28;1112;-59
2021/04/21 11:13:40;;;;;;;;;;;;;;;;;;4999926;28;1472;-60
2021/04/21 11:16:26;;;;;;;;;;;;;;;;;;5007088;28;1144;-60
2021/04/21 11:18:51;;;;;;;;;;;;;;;;;;5005365;28;1206;-60
2021/04/21 11:21:21;;;;;;;;;;;;;;;;;;5005329;28;1871;-60
2021/04/21 11:23:59;;;;;;;;;;;;;;;;;;5005975;28;878;-60
2021/04/21 11:26:26;;;;;;;;;;;;;;;;;;5005600;28;1246;-60
2021/04/21 11:28:59;;;;;;;;;;;;;;;;;;5006507;28;1139;-60
2021/04/21 11:31:39;;;;;;;;;;;;;;;;;;4993448;28;1454;-60
2021/04/21 11:34:15;;;;;;;;;;;;;;;;;;5002108;28;1258;-60
2021/04/21 11:36:46;;;;;;;;;;;;;;;;;;5003818;28;1520;-60
2021/04/21 11:39:11;;;;;;;;;;;;;;;;;;5004493;28;1164;-59
2021/04/21 11:41:47;;;;;;;;;;;;;;;;;;5004853;28;1898;-59
2021/04/21 11:44:31;;;;;;;;;;;;;;;;;;5001795;28;1657;-59
2021/04/21 11:46:57;;;;;;;;;;;;;;;;;;5001731;28;1121;-59
2021/04/21 11:49:41;;;;;;;;;;;;;;;;;;5000528;28;1505;-59
2021/04/21 11:52:06;;;;;;;;;;;;;;;;;;5002336;28;1078;-59
2021/04/21 11:54:36;;;;;;;;;;;;;;;;;;5005096;28;1240;-59
2021/04/21 11:57:02;;;;;;;;;;;;;;;;;;5004904;28;1395;-59
2021/04/21 11:59:28;;;;;;;;;;;;;;;;;;5004757;28;1252;-59
2021/04/21 12:01:54;;;;;;;;;;;;;;;;;;5005193;28;1965;-59
2021/04/21 12:04:19;;;;;;;;;;;;;;;;;;5004262;28;1469;-59
2021/04/21 12:06:45;;;;;;;;;;;;;;;;;;5004632;28;1281;-59
2021/04/21 12:09:11;;;;;;;;;;;;;;;;;;5005387;28;874;-59
2021/04/21 12:11:37;;;;;;;;;;;;;;;;;;5005487;28;1107;-59
2021/04/21 12:14:02;;;;;;;;;;;;;;;;;;5005865;28;787;-59
2021/04/21 12:16:28;;;;;;;;;;;;;;;;;;5005460;28;858;-60
2021/04/21 12:18:55;;;;;;;;;;;;;;;;;;5005008;28;853;-60
2021/04/21 12:21:30;;;;;;;;;;;;;;;;;;5005594;28;1965;-59
2021/04/21 12:24:03;;;;;;;;;;;;;;;;;;5003956;28;941;-60
2021/04/21 12:26:30;;;;;;;;;;;;;;;;;;5005377;28;1080;-59
2021/04/21 12:28:58;;;;;;;;;;;;;;;;;;5004746;28;843;-59
2021/04/21 12:31:24;;;;;;;;;;;;;;;;;;5006127;28;794;-60
2021/04/21 12:33:51;;;;;;;;;;;;;;;;;;5005198;28;1044;-58
2021/04/21 12:36:18;;;;;;;;;;;;;;;;;;5004513;28;1163;-58
2021/04/21 12:38:43;;;;;;;;;;;;;;;;;;5004669;28;984;-58
2021/04/21 12:41:17;;;;;;;;;;;;;;;;;;5003171;28;1732;-59
2021/04/21 12:43:43;;;;;;;;;;;;;;;;;;5004361;28;1750;-58
2021/04/21 12:46:12;;;;;;;;;;;;;;;;;;5004218;28;868;-57
2021/04/21 12:48:48;;;;;;;;;;;;;;;;;;5005290;28;1853;-58
2021/04/21 12:51:18;;;;;;;;;;;;;;;;;;5005062;28;894;-58
2021/04/21 12:53:43;;;;;;;;;;;;;;;;;;5016316;28;1081;-59
2021/04/21 12:56:11;;;;;;;;;;;;;;;;;;5024568;28;799;-59
2021/04/21 12:58:42;;;;;;;;;;;;;;;;;;5006102;28;1623;-59
2021/04/21 13:01:15;;;;;;;;;;;;;;;;;;5004569;28;831;-58
2021/04/21 13:03:56;;;;;;;;;;;;;;;;;;5004283;28;850;-59
2021/04/21 13:06:40;;;;;;;;;;;;;;;;;;5005385;28;835;-58
2021/04/21 13:09:10;;;;;;;;;;;;;;;;;;5003993;28;799;-58
2021/04/21 13:11:36;;;;;;;;;;;;;;;;;;5004616;28;1183;-60
2021/04/21 13:14:02;;;;;;;;;;;;;;;;;;5004685;28;1707;-58
2021/04/21 13:16:37;;;;;;;;;;;;;;;;;;5004958;28;806;-59
2021/04/21 13:19:18;;;;;;;;;;;;;;;;;;5004772;28;814;-59
2021/04/21 13:21:43;;;;;;;;;;;;;;;;;;5037677;28;1898;-59
2021/04/21 13:24:09;;;;;;;;;;;;;;;;;;5107448;28;877;-59
2021/04/21 13:26:35;;;;;;;;;;;;;;;;;;5107567;28;815;-58
2021/04/21 13:29:02;;;;;;;;;;;;;;;;;;5070106;28;1068;-58
2021/04/21 13:31:30;;;;;;;;;;;;;;;;;;5004384;28;681;-59
2021/04/21 13:33:56;;;;;;;;;;;;;;;;;;5004465;28;826;-61
2021/04/21 13:36:21;;;;;;;;;;;;;;;;;;5004840;28;882;-59
2021/04/21 13:38:48;;;;;;;;;;;;;;;;;;5003345;28;1183;-59
2021/04/21 13:41:14;;;;;;;;;;;;;;;;;;5003739;28;1898;-59
2021/04/21 13:43:39;;;;;;;;;;;;;;;;;;5006905;28;1683;-59
2021/04/21 13:46:04;;;;;;;;;;;;;;;;;;5003896;28;1639;-59
2021/04/21 13:48:32;;;;;;;;;;;;;;;;;;5002398;28;1659;-58
2021/04/21 13:50:57;;;;;;;;;;;;;;;;;;5003191;28;874;-58
2021/04/21 13:53:23;;;;;;;;;;;;;;;;;;5013256;28;1592;-59
2021/04/21 13:55:48;;;;;;;;;;;;;;;;;;5023107;28;914;-58
2021/04/21 13:58:13;;;;;;;;;;;;;;;;;;5023639;28;851;-59
2021/04/21 14:00:39;;;;;;;;;;;;;;;;;;5017457;28;1785;-58
2021/04/21 14:03:05;;;;;;;;;;;;;;;;;;5003262;28;1898;-59
2021/04/21 14:05:34;;;;;;;;;;;;;;;;;;5001995;28;1149;-58
2021/04/21 14:08:00;;;;;;;;;;;;;;;;;;5001720;28;1299;-60
2021/04/21 14:10:25;;;;;;;;;;;;;;;;;;5001611;28;1265;-59
2021/04/21 14:12:51;;;;;;;;;;;;;;;;;;5003559;28;1311;-59
2021/04/21 14:15:17;;;;;;;;;;;;;;;;;;5003377;28;1209;-58
2021/04/21 14:17:42;;;;;;;;;;;;;;;;;;5001959;28;1707;-58
2021/04/21 14:20:10;;;;;;;;;;;;;;;;;;5003020;28;826;-58
2021/04/21 14:22:36;;;;;;;;;;;;;;;;;;5003288;28;1979;-59
2021/04/21 14:25:03;;;;;;;;;;;;;;;;;;5003309;28;1158;-59
2021/04/21 14:27:28;;;;;;;;;;;;;;;;;;5002344;28;1048;-58
2021/04/21 14:29:54;;;;;;;;;;;;;;;;;;5003605;28;1186;-58
2021/04/21 14:32:19;;;;;;;;;;;;;;;;;;5002940;28;1238;-58
2021/04/21 14:34:45;;;;;;;;;;;;;;;;;;5003240;28;858;-58
2021/04/21 14:37:10;;;;;;;;;;;;;;;;;;5001617;28;1832;-58
2021/04/21 14:39:35;;;;;;;;;;;;;;;;;;5000195;28;1340;-58
2021/04/21 14:42:01;;;;;;;;;;;;;;;;;;5000208;28;1906;-58
2021/04/21 14:44:26;;;;;;;;;;;;;;;;;;5000216;28;1155;-59
2021/04/21 14:46:51;;;;;;;;;;;;;;;;;;5003062;28;1227;-59
2021/04/21 14:49:17;;;;;;;;;;;;;;;;;;5003555;28;1163;-58
2021/04/21 14:51:42;;;;;;;;;;;;;;;;;;5005488;28;1477;-57
2021/04/21 14:54:08;;;;;;;;;;;;;;;;;;5021080;28;1166;-58
2021/04/21 14:56:33;;;;;;;;;;;;;;;;;;5005262;28;1158;-58
2021/04/21 14:58:59;;;;;;;;;;;;;;;;;;5007124;28;811;-58
2021/04/21 15:01:24;;;;;;;;;;;;;;;;;;5007556;28;1898;-59
2021/04/21 15:03:52;;;;;;;;;;;;;;;;;;5002088;28;1390;-58
2021/04/21 15:06:17;;;;;;;;;;;;;;;;;;5063887;28;892;-58
2021/04/21 15:08:43;;;;;;;;;;;;;;;;;;5006976;28;906;-58
2021/04/21 15:11:08;;;;;;;;;;;;;;;;;;5006527;28;842;-57
2021/04/21 15:13:34;;;;;;;;;;;;;;;;;;5013721;28;1098;-57
2021/04/21 15:15:59;;;;;;;;;;;;;;;;;;5006448;28;807;-59
2021/04/21 15:18:25;;;;;;;;;;;;;;;;;;5006667;28;1170;-59
2021/04/21 15:20:54;;;;;;;;;;;;;;;;;;5012282;28;1215;-58
2021/04/21 15:23:20;;;;;;;;;;;;;;;;;;5005953;28;1894;-58
2021/04/21 15:25:45;;;;;;;;;;;;;;;;;;5005436;28;1258;-59
2021/04/21 15:28:11;;;;;;;;;;;;;;;;;;5006692;28;862;-58
2021/04/21 15:30:36;;;;;;;;;;;;;;;;;;5005707;28;1305;-57
2021/04/21 15:33:04;;;;;;;;;;;;;;;;;;5014464;28;1245;-58
2021/04/21 15:35:29;;;;;;;;;;;;;;;;;;5005056;28;1155;-57
2021/04/21 15:37:55;;;;;;;;;;;;;;;;;;5003693;28;1222;-59
2021/04/21 15:40:22;;;;;;;;;;;;;;;;;;5005892;28;1125;-58
2021/04/21 15:42:48;;;;;;;;;;;;;;;;;;5005492;28;1930;-57
2021/04/21 15:45:15;;;;;;;;;;;;;;;;;;5005549;28;831;-58
2021/04/21 15:47:41;;;;;;;;;;;;;;;;;;5005910;28;1245;-58
2021/04/21 15:50:06;;;;;;;;;;;;;;;;;;5004103;28;1242;-58
2021/04/21 15:52:32;;;;;;;;;;;;;;;;;;5005769;28;1504;-58
2021/04/21 15:54:58;;;;;;;;;;;;;;;;;;5014661;28;1142;-59
2021/04/21 15:57:23;;;;;;;;;;;;;;;;;;5006277;28;845;-58
2021/04/21 15:59:49;;;;;;;;;;;;;;;;;;5005338;28;905;-59
2021/04/21 16:02:15;;;;;;;;;;;;;;;;;;5004082;28;1894;-58
2021/04/21 16:04:42;;;;;;;;;;;;;;;;;;5004573;28;1115;-59
2021/04/21 16:07:09;;;;;;;;;;;;;;;;;;5005619;28;857;-58
2021/04/21 16:09:36;;;;;;;;;;;;;;;;;;5005587;28;827;-58
2021/04/21 16:12:01;;;;;;;;;;;;;;;;;;5005501;28;857;-59
2021/04/21 16:14:26;;;;;;;;;;;;;;;;;;5005265;28;1178;-59
2021/04/21 16:16:52;;;;;;;;;;;;;;;;;;5005995;28;1205;-59
2021/04/21 16:19:17;;;;;;;;;;;;;;;;;;5004369;28;1230;-58
2021/04/21 16:21:44;;;;;;;;;;;;;;;;;;5005537;28;1859;-58
2021/04/21 16:24:11;;;;;;;;;;;;;;;;;;5005249;28;1174;-58
2021/04/21 16:26:36;;;;;;;;;;;;;;;;;;5004819;28;1159;-58
2021/04/21 16:29:03;;;;;;;;;;;;;;;;;;5004776;28;1095;-58
2021/04/21 16:31:28;;;;;;;;;;;;;;;;;;5001628;28;879;-58
2021/04/21 16:33:53;;;;;;;;;;;;;;;;;;4986323;28;815;-58
2021/04/21 16:36:19;;;;;;;;;;;;;;;;;;4985931;28;851;-58
2021/04/21 16:38:44;;;;;;;;;;;;;;;;;;4988849;28;1183;-58
2021/04/21 16:41:09;;;;;;;;;;;;;;;;;;5004819;28;1139;-57
2021/04/21 16:43:37;;;;;;;;;;;;;;;;;;5004583;28;1906;-58
2021/04/21 16:46:03;;;;;;;;;;;;;;;;;;5004923;28;815;-58
2021/04/21 16:48:29;;;;;;;;;;;;;;;;;;5004484;28;847;-59
2021/04/21 16:50:54;;;;;;;;;;;;;;;;;;5005735;28;819;-58
2021/04/21 16:53:20;;;;;;;;;;;;;;;;;;5013467;28;1627;-57
2021/04/21 16:55:45;;;;;;;;;;;;;;;;;;5024412;28;866;-57
2021/04/21 16:58:15;;;;;;;;;;;;;;;;;;5022707;28;1300;-59
2021/04/21 17:00:41;;;;;;;;;;;;;;;;;;5023806;28;814;-58
2021/04/21 17:03:07;;;;;;;;;;;;;;;;;;5024376;28;1982;-57
2021/04/21 17:05:33;;;;;;;;;;;;;;;;;;5024377;28;886;-58
2021/04/21 17:08:04;;;;;;;;;;;;;;;;;;5023986;28;882;-58
2021/04/21 17:10:30;;;;;;;;;;;;;;;;;;5024137;28;889;-58
2021/04/21 17:12:55;;;;;;;;;;;;;;;;;;5024085;28;791;-58
2021/04/21 17:15:21;;;;;;;;;;;;;;;;;;5024668;28;787;-58
2021/04/21 17:17:46;;;;;;;;;;;;;;;;;;5036675;28;1084;-58
2021/04/21 17:20:14;;;;;;;;;;;;;;;;;;5024161;28;846;-57
2021/04/21 17:22:40;;;;;;;;;;;;;;;;;;5023632;28;1890;-58
2021/04/21 17:25:07;;;;;;;;;;;;;;;;;;5024117;28;806;-59
2021/04/21 17:27:33;;;;;;;;;;;;;;;;;;5024100;28;811;-59